Time;durP1;ratioP1;P1;durP2;ratioP2;P2;SDS_P1;SDS_P2;PMS_P1;PMS_P2;Temp;Humidity;BMP_temperature;BMP_pressure;BME280_temperature;BME280_humidity;BME280_pressure;Samples;Min_cycle;Max_cycle;Signal;HPM_P1;HPM_P2
2023/04/19 00:02:22;;;;;;;3.70;2.50;;;;;;;19.37;49.73;99173.75;4987006;28;20023;-76
2023/04/19 00:04:48;;;;;;;3.22;2.15;;;;;;;19.37;49.83;99172.94;4973358;28;20038;-77
2023/04/19 00:07:13;;;;;;;5.82;2.60;;;;;;;19.38;49.57;99174.63;4975092;28;20034;-76
2023/04/19 00:09:39;;;;;;;3.53;2.25;;;;;;;19.38;49.94;99171.97;4992647;28;20511;-77
2023/04/19 00:12:04;;;;;;;3.65;2.13;;;;;;;19.37;49.74;99167.63;4981237;28;20031;-76
2023/04/19 00:14:30;;;;;;;3.35;2.30;;;;;;;19.34;49.78;99167.81;4982500;28;20547;-76
2023/04/19 00:16:55;;;;;;;3.92;2.35;;;;;;;19.31;49.82;99163.53;4984441;28;20027;-76
2023/04/19 00:19:22;;;;;;;4.07;2.45;;;;;;;19.32;49.78;99166.09;4990424;28;20074;-77
2023/04/19 00:21:47;;;;;;;3.97;2.22;;;;;;;19.31;49.86;99174.13;4977029;28;20034;-75
2023/04/19 00:24:13;;;;;;;3.55;2.13;;;;;;;19.28;49.75;99164.56;4959443;28;20559;-76
2023/04/19 00:26:38;;;;;;;3.72;2.22;;;;;;;19.27;49.44;99168.16;4976788;28;20066;-76
2023/04/19 00:29:04;;;;;;;3.63;2.20;;;;;;;19.28;49.55;99169.03;4990206;28;20022;-76
2023/04/19 00:31:29;;;;;;;3.72;2.20;;;;;;;19.27;49.58;99167.34;4976513;28;20023;-76
2023/04/19 00:33:55;;;;;;;4.50;2.35;;;;;;;19.26;49.51;99166.47;4976649;28;20027;-76
2023/04/19 00:36:21;;;;;;;4.40;2.78;;;;;;;19.25;49.70;99170.06;4980975;28;20465;-76
2023/04/19 00:38:46;;;;;;;3.85;2.03;;;;;;;19.24;49.38;99168.38;4995206;28;20033;-76
2023/04/19 00:41:12;;;;;;;3.05;2.10;;;;;;;19.22;49.27;99164.94;4978213;28;20473;-76
2023/04/19 00:43:37;;;;;;;3.25;2.13;;;;;;;19.22;49.37;99170.22;4966771;28;20027;-76
2023/04/19 00:46:04;;;;;;;3.63;2.33;;;;;;;19.21;49.63;99168.53;4979139;28;20449;-77
2023/04/19 00:48:29;;;;;;;3.05;2.08;;;;;;;19.21;49.74;99165.88;4977944;28;20035;-77
2023/04/19 00:50:55;;;;;;;4.28;2.40;;;;;;;19.19;49.33;99163.31;4977393;28;20030;-76
2023/04/19 00:53:21;;;;;;;3.40;2.05;;;;;;;19.19;49.63;99160.66;4976924;28;20121;-76
2023/04/19 00:55:46;;;;;;;3.58;2.28;;;;;;;19.16;49.35;99160.00;4977016;28;20089;-76
2023/04/19 00:58:12;;;;;;;3.03;2.17;;;;;;;19.16;49.52;99155.56;4976513;28;20034;-76
2023/04/19 01:00:37;;;;;;;3.25;2.20;;;;;;;19.17;49.47;99156.41;4976483;28;20054;-76
2023/04/19 01:03:03;;;;;;;3.83;2.50;;;;;;;19.15;49.41;99159.16;4976235;28;20547;-76
2023/04/19 01:05:29;;;;;;;3.33;2.08;;;;;;;19.15;49.55;99155.66;4976070;28;20031;-76
2023/04/19 01:07:55;;;;;;;3.40;2.22;;;;;;;19.14;49.23;99146.84;4976218;28;20035;-77
2023/04/19 01:10:20;;;;;;;3.38;2.38;;;;;;;19.13;49.47;99160.19;4976215;28;20052;-76
2023/04/19 01:12:45;;;;;;;4.05;2.22;;;;;;;19.13;49.40;99150.44;4975774;28;20103;-76
2023/04/19 01:15:11;;;;;;;2.67;1.80;;;;;;;19.10;49.30;99153.28;4976001;28;20023;-76
2023/04/19 01:17:36;;;;;;;3.58;2.10;;;;;;;19.10;49.22;99152.44;4975770;28;20026;-77
2023/04/19 01:20:05;;;;;;;3.40;2.30;;;;;;;19.08;49.64;99151.69;4975782;28;20028;-77
2023/04/19 01:22:31;;;;;;;3.40;2.20;;;;;;;19.06;49.54;99159.69;4975493;28;20030;-76
2023/04/19 01:24:57;;;;;;;4.00;2.25;;;;;;;19.05;49.46;99155.34;4975783;28;20030;-76
2023/04/19 01:27:22;;;;;;;4.38;2.60;;;;;;;19.04;49.36;99146.56;4975294;28;20033;-76
2023/04/19 01:29:48;;;;;;;3.63;2.33;;;;;;;19.02;49.60;99143.13;4975623;28;20456;-76
2023/04/19 01:32:14;;;;;;;3.15;2.08;;;;;;;18.99;49.49;99148.56;4975571;28;20027;-76
2023/04/19 01:34:40;;;;;;;3.90;2.33;;;;;;;19.00;49.66;99139.72;4975587;28;20023;-76
2023/04/19 01:37:06;;;;;;;3.75;2.20;;;;;;;19.02;49.34;99137.84;4975303;28;20480;-76
2023/04/19 01:39:31;;;;;;;3.25;2.10;;;;;;;18.99;49.58;99132.69;4974714;28;20054;-76
2023/04/19 01:41:57;;;;;;;3.28;2.05;;;;;;;18.99;49.17;99132.69;4974922;28;20034;-76
2023/04/19 01:44:22;;;;;;;3.38;2.28;;;;;;;18.96;49.39;99132.91;4961860;28;20173;-76
2023/04/19 01:46:48;;;;;;;4.07;2.30;;;;;;;18.95;49.47;99131.19;4975231;28;20393;-77
2023/04/19 01:49:13;;;;;;;4.18;2.45;;;;;;;18.94;49.49;99123.34;4968338;28;20027;-76
2023/04/19 01:51:39;;;;;;;3.97;2.70;;;;;;;18.94;49.56;99124.22;4975186;28;20066;-76
2023/04/19 01:54:04;;;;;;;4.45;2.30;;;;;;;18.93;49.45;99130.41;4975269;28;20077;-77
2023/04/19 01:56:29;;;;;;;4.15;2.40;;;;;;;18.91;49.63;99132.31;4974977;28;20030;-76
2023/04/19 01:58:55;;;;;;;3.72;2.55;;;;;;;18.91;49.44;99129.66;4975033;28;20107;-77
2023/04/19 02:01:21;;;;;;;3.75;2.40;;;;;;;18.90;49.22;99122.69;4974766;28;20018;-76
2023/04/19 02:03:46;;;;;;;3.53;2.30;;;;;;;18.92;49.23;99120.78;4974976;28;20030;-76
2023/04/19 02:06:12;;;;;;;3.70;2.35;;;;;;;18.91;49.30;99108.50;4974719;28;20084;-76
2023/04/19 02:08:39;;;;;;;4.22;2.55;;;;;;;18.90;49.15;99106.81;4974878;28;20539;-77
2023/04/19 02:11:08;;;;;;;3.83;2.33;;;;;;;18.89;49.31;99105.13;4974446;28;20477;-77
2023/04/19 02:13:34;;;;;;;3.75;2.25;;;;;;;18.87;49.38;99101.69;4974576;28;20497;-76
2023/04/19 02:16:02;;;;;;;3.60;2.28;;;;;;;18.87;49.00;99096.41;4957429;28;20023;-77
2023/04/19 02:18:30;;;;;;;3.80;2.38;;;;;;;18.86;49.26;99102.63;4974515;28;20073;-77
2023/04/19 02:20:58;;;;;;;3.95;2.40;;;;;;;18.86;49.21;99094.72;4974494;28;20030;-77
2023/04/19 02:23:24;;;;;;;4.43;2.50;;;;;;;18.85;49.10;99093.00;4974241;28;20030;-77
2023/04/19 02:25:50;;;;;;;3.63;2.20;;;;;;;18.83;48.84;99094.91;4974107;28;20441;-77
2023/04/19 02:28:15;;;;;;;3.45;2.38;;;;;;;18.80;49.03;99106.50;4974393;28;20085;-77
2023/04/19 02:30:41;;;;;;;3.90;2.40;;;;;;;18.78;49.22;99119.81;4974421;28;20022;-76
2023/04/19 02:33:06;;;;;;;3.50;2.33;;;;;;;18.77;49.32;99123.38;4974392;28;20019;-77
2023/04/19 02:35:32;;;;;;;3.53;2.15;;;;;;;18.75;49.06;99125.25;4974011;28;20514;-76
2023/04/19 02:37:59;;;;;;;3.17;2.25;;;;;;;18.77;49.10;99128.66;4973992;28;20030;-76
2023/04/19 02:40:25;;;;;;;3.60;2.42;;;;;;;18.76;49.09;99132.25;4973470;28;20190;-76
2023/04/19 02:42:51;;;;;;;3.58;2.33;;;;;;;18.75;49.04;99135.81;4974059;28;20117;-76
2023/04/19 02:45:17;;;;;;;3.85;2.33;;;;;;;18.75;49.18;99140.28;4974100;28;20018;-77
2023/04/19 02:47:42;;;;;;;3.72;2.20;;;;;;;18.72;49.14;99133.38;4974124;28;20030;-77
2023/04/19 02:50:08;;;;;;;3.28;2.22;;;;;;;18.72;48.96;99132.50;4975459;28;20433;-76
2023/04/19 02:52:34;;;;;;;3.35;2.25;;;;;;;18.70;49.13;99132.56;4976679;28;20026;-77
2023/04/19 02:54:59;;;;;;;4.30;2.53;;;;;;;18.69;49.00;99137.97;4976377;28;20023;-76
2023/04/19 02:57:24;;;;;;;3.95;2.45;;;;;;;18.69;49.09;99152.03;4974612;28;20011;-77
2023/04/19 02:59:50;;;;;;;3.05;2.05;;;;;;;18.70;49.36;99147.59;4974353;28;20110;-76
2023/04/19 03:02:15;;;;;;;3.97;2.45;;;;;;;18.67;48.95;99151.28;4974488;28;20069;-76
2023/04/19 03:04:42;;;;;;;3.00;2.20;;;;;;;18.67;49.19;99159.19;4973981;28;20489;-77
2023/04/19 03:07:08;;;;;;;4.40;2.78;;;;;;;18.67;48.96;99142.47;4974105;28;20031;-76
2023/04/19 03:09:34;;;;;;;4.22;2.42;;;;;;;18.64;49.26;99144.38;4974277;28;20473;-77
2023/04/19 03:12:00;;;;;;;3.75;2.40;;;;;;;18.65;49.13;99150.50;4956638;28;20042;-76
2023/04/19 03:14:25;;;;;;;4.05;2.63;;;;;;;18.64;49.20;99143.50;4973830;28;20077;-76
2023/04/19 03:16:51;;;;;;;3.97;2.40;;;;;;;18.62;49.14;99140.09;4973939;28;20417;-77
2023/04/19 03:19:16;;;;;;;3.90;2.50;;;;;;;18.62;48.95;99151.53;4973751;28;20034;-76
2023/04/19 03:21:42;;;;;;;4.60;2.60;;;;;;;18.61;48.93;99143.69;4973666;28;20106;-77
2023/04/19 03:24:07;;;;;;;3.67;2.28;;;;;;;18.60;48.95;99148.09;4973730;28;20050;-76
2023/04/19 03:26:33;;;;;;;3.15;2.00;;;;;;;18.59;49.00;99151.69;4973372;28;20046;-76
2023/04/19 03:28:58;;;;;;;3.70;2.40;;;;;;;18.58;49.11;99146.50;4973745;28;20034;-76
2023/04/19 03:31:24;;;;;;;3.45;2.28;;;;;;;18.56;49.01;99143.09;4973653;28;20023;-76
2023/04/19 03:33:49;;;;;;;3.95;2.30;;;;;;;18.54;48.97;99142.34;4973493;28;20077;-75
2023/04/19 03:36:15;;;;;;;3.72;2.42;;;;;;;18.53;49.14;99133.53;4973231;28;20397;-76
2023/04/19 03:38:40;;;;;;;3.42;2.08;;;;;;;18.54;48.99;99142.34;4973449;28;20477;-76
2023/04/19 03:41:20;;;;;;;4.25;2.50;;;;;;;18.51;49.06;99140.72;4973361;28;20681;-76
2023/04/19 03:43:45;;;;;;;4.22;2.38;;;;;;;18.50;48.87;99142.50;4972882;28;20400;-76
2023/04/19 03:46:11;;;;;;;3.53;2.38;;;;;;;18.49;48.93;99140.78;4972611;28;20023;-77
2023/04/19 03:48:36;;;;;;;3.72;2.22;;;;;;;18.48;49.13;99141.72;4973104;28;20026;-76
2023/04/19 03:51:02;;;;;;;4.50;2.22;;;;;;;18.46;49.17;99130.38;4972995;28;20117;-76
2023/04/19 03:53:27;;;;;;;4.20;2.17;;;;;;;18.47;49.05;99133.88;4973130;28;20034;-76
2023/04/19 03:55:53;;;;;;;4.07;2.40;;;;;;;18.44;49.02;99148.13;4973310;28;20037;-76
2023/04/19 03:58:18;;;;;;;4.28;2.40;;;;;;;18.45;49.17;99144.53;4973184;28;20034;-76
2023/04/19 04:00:44;;;;;;;3.75;2.38;;;;;;;18.41;49.18;99150.94;4973183;28;20105;-75
2023/04/19 04:03:09;;;;;;;3.60;2.28;;;;;;;18.41;49.01;99164.16;4972905;28;20042;-76
2023/04/19 04:05:34;;;;;;;3.30;2.20;;;;;;;18.42;49.28;99165.84;4973057;28;20425;-76
2023/04/19 04:08:00;;;;;;;3.33;2.20;;;;;;;18.43;49.14;99171.97;4972971;28;20026;-76
2023/04/19 04:10:25;;;;;;;3.08;2.05;;;;;;;18.43;49.07;99178.13;4973426;28;20393;-76
2023/04/19 04:12:51;;;;;;;3.72;2.30;;;;;;;18.40;48.95;99178.28;4972974;28;20023;-77
2023/04/19 04:15:17;;;;;;;3.70;2.30;;;;;;;18.40;49.18;99167.72;4973087;28;20031;-76
2023/04/19 04:17:42;;;;;;;4.13;2.65;;;;;;;18.40;48.98;99162.41;4972866;28;20030;-76
2023/04/19 04:20:08;;;;;;;4.10;2.40;;;;;;;18.42;49.05;99157.94;4972597;28;20027;-77
2023/04/19 04:22:34;;;;;;;3.83;2.40;;;;;;;18.40;49.26;99157.13;4973195;28;20031;-76
2023/04/19 04:25:01;;;;;;;4.18;3.25;;;;;;;18.40;49.19;99154.50;4972793;28;20026;-76
2023/04/19 04:27:26;;;;;;;4.07;2.60;;;;;;;18.37;49.11;99163.44;4972970;28;20130;-76
2023/04/19 04:29:51;;;;;;;3.65;2.08;;;;;;;18.38;49.36;99159.88;4972735;28;20118;-76
2023/04/19 04:32:21;;;;;;;3.78;2.35;;;;;;;18.37;49.23;99159.97;4972768;28;20106;-77
2023/04/19 04:34:47;;;;;;;3.90;2.60;;;;;;;18.34;49.02;99166.25;4972393;28;20089;-77
2023/04/19 04:37:12;;;;;;;4.18;2.30;;;;;;;18.34;49.02;99163.63;4972897;28;20031;-77
2023/04/19 04:39:38;;;;;;;2.97;2.08;;;;;;;18.34;48.95;99162.75;4975509;28;20038;-76
2023/04/19 04:42:06;;;;;;;3.75;2.42;;;;;;;18.32;49.31;99169.94;4972490;28;20424;-76
2023/04/19 04:44:33;;;;;;;3.35;2.15;;;;;;;18.29;49.20;99167.44;4972857;28;20027;-76
2023/04/19 04:46:58;;;;;;;3.60;2.15;;;;;;;18.30;48.96;99171.81;4972713;28;20030;-76
2023/04/19 04:49:23;;;;;;;3.72;2.20;;;;;;;18.28;49.23;99163.09;4978627;28;20404;-77
2023/04/19 04:51:49;;;;;;;3.78;2.10;;;;;;;18.28;49.19;99163.09;4976288;28;20026;-76
2023/04/19 04:54:14;;;;;;;4.40;2.30;;;;;;;18.29;49.25;99159.50;4972934;28;20027;-76
2023/04/19 04:56:40;;;;;;;3.63;2.30;;;;;;;18.29;49.21;99170.06;4975526;28;20031;-76
2023/04/19 04:59:06;;;;;;;3.85;2.30;;;;;;;18.28;49.05;99166.59;4980132;28;20022;-76
2023/04/19 05:01:31;;;;;;;4.10;2.47;;;;;;;18.25;49.32;99162.34;4978472;28;20031;-77
2023/04/19 05:03:57;;;;;;;3.53;2.22;;;;;;;18.24;49.16;99168.56;4979971;28;20408;-77
2023/04/19 05:06:22;;;;;;;3.60;2.40;;;;;;;18.24;49.06;99168.56;4977588;28;20034;-76
2023/04/19 05:08:48;;;;;;;3.65;2.20;;;;;;;18.22;49.25;99170.41;4988051;28;20468;-76
2023/04/19 05:11:13;;;;;;;3.63;2.20;;;;;;;18.22;49.11;99167.78;4977037;28;20487;-76
2023/04/19 05:13:39;;;;;;;3.90;2.40;;;;;;;18.20;48.97;99172.28;4976985;28;20485;-76
2023/04/19 05:16:04;;;;;;;3.72;2.50;;;;;;;18.21;49.25;99167.88;4977149;28;20113;-76
2023/04/19 05:18:30;;;;;;;3.42;2.15;;;;;;;18.19;49.08;99167.94;4976627;28;20074;-76
2023/04/19 05:20:56;;;;;;;3.75;2.65;;;;;;;18.19;49.30;99170.59;4981690;28;20476;-77
2023/04/19 05:23:21;;;;;;;3.65;2.20;;;;;;;18.18;49.17;99168.03;4977077;28;20492;-77
2023/04/19 05:25:47;;;;;;;3.88;2.05;;;;;;;18.18;49.26;99174.19;4976502;28;20105;-76
2023/04/19 05:28:12;;;;;;;4.53;2.70;;;;;;;18.15;49.31;99179.59;4993742;28;20027;-76
2023/04/19 05:30:38;;;;;;;3.10;2.10;;;;;;;18.16;49.28;99181.31;4980745;28;20019;-77
2023/04/19 05:33:04;;;;;;;4.05;2.20;;;;;;;18.17;49.21;99177.75;4975846;28;20038;-77
2023/04/19 05:35:29;;;;;;;3.60;2.30;;;;;;;18.17;49.21;99188.31;4976269;28;20134;-76
2023/04/19 05:37:55;;;;;;;3.30;2.22;;;;;;;18.17;48.99;99190.97;4976067;28;20090;-76
2023/04/19 05:40:22;;;;;;;3.83;2.35;;;;;;;18.16;49.46;99194.50;4983174;28;20050;-76
2023/04/19 05:42:48;;;;;;;3.78;2.53;;;;;;;18.18;49.39;99205.00;4975763;28;20106;-76
2023/04/19 05:45:15;;;;;;;3.65;2.60;;;;;;;18.18;49.36;99205.00;4975619;28;20067;-76
2023/04/19 05:47:41;;;;;;;3.33;2.15;;;;;;;18.17;49.43;99211.22;4975284;28;20025;-76
2023/04/19 05:50:06;;;;;;;3.90;2.65;;;;;;;18.14;49.43;99206.09;4975337;28;20026;-78
2023/04/19 05:52:32;;;;;;;4.07;2.35;;;;;;;18.12;49.41;99200.91;4981478;28;20022;-76
2023/04/19 05:54:58;;;;;;;4.75;2.70;;;;;;;18.13;49.33;99197.34;4994839;28;20031;-77
2023/04/19 05:57:24;;;;;;;3.00;2.15;;;;;;;18.14;49.37;99192.88;4961999;28;20034;-76
2023/04/19 05:59:50;;;;;;;4.13;2.72;;;;;;;18.11;49.34;99189.47;4975565;28;20058;-76
2023/04/19 06:02:15;;;;;;;3.75;1.98;;;;;;;18.14;49.13;99200.81;4977497;28;20066;-76
2023/04/19 06:04:41;;;;;;;4.28;2.42;;;;;;;18.14;49.15;99199.03;4975102;28;20023;-76
2023/04/19 06:07:06;;;;;;;4.00;2.67;;;;;;;18.12;49.45;99198.28;4975136;28;20421;-76
2023/04/19 06:09:32;;;;;;;3.95;2.58;;;;;;;18.15;49.51;99200.72;4974099;28;20022;-76
2023/04/19 06:11:57;;;;;;;3.55;2.63;;;;;;;18.13;49.39;99199.97;4975084;28;20409;-76
2023/04/19 06:14:23;;;;;;;4.15;2.50;;;;;;;18.13;49.32;99199.97;4975135;28;20026;-76
2023/04/19 06:16:49;;;;;;;4.40;2.42;;;;;;;18.15;49.23;99202.53;4974645;28;20489;-76
2023/04/19 06:19:15;;;;;;;4.75;2.38;;;;;;;18.15;49.16;99203.38;4975219;28;20089;-76
2023/04/19 06:21:40;;;;;;;4.28;2.42;;;;;;;18.17;49.36;99211.22;4975169;28;20026;-76
2023/04/19 06:24:06;;;;;;;3.88;2.60;;;;;;;18.16;49.24;99207.72;4989611;28;20041;-76
2023/04/19 06:26:31;;;;;;;3.28;2.13;;;;;;;18.17;49.16;99208.59;4976403;28;20137;-76
2023/04/19 06:28:57;;;;;;;4.07;2.47;;;;;;;18.16;49.21;99207.72;4974884;28;20117;-76
2023/04/19 06:31:23;;;;;;;3.20;2.25;;;;;;;18.16;49.21;99202.44;4974214;28;20382;-76
2023/04/19 06:33:48;;;;;;;4.45;2.50;;;;;;;18.16;49.36;99207.72;4974633;28;20162;-76
2023/04/19 06:36:14;;;;;;;4.20;2.40;;;;;;;18.17;49.23;99209.44;4957211;28;20035;-77
2023/04/19 06:38:40;;;;;;;3.60;2.42;;;;;;;18.15;49.15;99207.81;4974448;28;20031;-77
2023/04/19 06:41:06;;;;;;;3.88;2.20;;;;;;;18.17;49.10;99209.44;4974259;28;20406;-76
2023/04/19 06:43:32;;;;;;;4.03;2.55;;;;;;;18.19;49.21;99207.56;4974055;28;20034;-76
2023/04/19 06:46:00;;;;;;;3.83;2.35;;;;;;;18.19;49.44;99210.22;4973914;28;20030;-76
2023/04/19 06:48:26;;;;;;;3.95;2.50;;;;;;;18.18;49.33;99211.16;4974161;28;20034;-77
2023/04/19 06:50:52;;;;;;;4.60;2.83;;;;;;;18.20;49.33;99217.19;4974219;28;20022;-77
2023/04/19 06:53:17;;;;;;;3.65;2.47;;;;;;;18.20;49.11;99217.19;4974105;28;20109;-76
2023/04/19 06:55:43;;;;;;;3.72;2.33;;;;;;;18.22;49.16;99212.66;4974335;28;20110;-76
2023/04/19 06:58:09;;;;;;;4.32;2.70;;;;;;;18.24;49.47;99210.81;4973984;28;20046;-77
2023/04/19 07:00:35;;;;;;;4.30;2.50;;;;;;;18.24;49.33;99209.94;4973549;28;20397;-76
2023/04/19 07:03:01;;;;;;;4.40;2.47;;;;;;;18.24;49.38;99215.22;4975296;28;20082;-76
2023/04/19 07:05:27;;;;;;;3.55;2.50;;;;;;;18.24;49.08;99216.09;4975182;28;20030;-76
2023/04/19 07:07:52;;;;;;;4.20;2.53;;;;;;;18.25;48.98;99209.00;4975089;28;20031;-77
2023/04/19 07:10:18;;;;;;;3.97;2.17;;;;;;;18.28;49.07;99210.63;4974325;28;20118;-77
2023/04/19 07:12:43;;;;;;;4.07;2.53;;;;;;;18.31;49.06;99202.56;4974530;28;20035;-76
2023/04/19 07:15:09;;;;;;;3.83;2.65;;;;;;;18.33;49.03;99203.31;4973903;28;20441;-76
2023/04/19 07:17:35;;;;;;;5.05;2.53;;;;;;;18.38;49.18;99203.94;4974146;28;20053;-76
2023/04/19 07:20:02;;;;;;;4.35;2.65;;;;;;;18.41;48.80;99209.06;4973647;28;20030;-76
2023/04/19 07:22:28;;;;;;;4.68;2.58;;;;;;;18.43;48.79;99206.31;4973696;28;20030;-77
2023/04/19 07:24:53;;;;;;;3.28;2.13;;;;;;;18.45;49.17;99207.09;4973674;28;20027;-76
2023/04/19 07:27:19;;;;;;;4.18;2.55;;;;;;;18.45;48.85;99207.94;4973848;28;20070;-76
2023/04/19 07:29:45;;;;;;;3.92;2.50;;;;;;;18.46;48.97;99209.63;4972837;28;20026;-77
2023/04/19 07:32:12;;;;;;;3.35;2.33;;;;;;;18.47;48.97;99206.09;4973559;28;20084;-77
2023/04/19 07:34:40;;;;;;;3.83;2.30;;;;;;;18.45;49.03;99217.66;4973261;28;20456;-76
2023/04/19 07:37:05;;;;;;;4.53;2.60;;;;;;;18.48;48.95;99218.34;4973575;28;20117;-76
2023/04/19 07:39:31;;;;;;;3.63;2.58;;;;;;;18.52;49.06;99216.41;4975261;28;20477;-76
2023/04/19 07:41:57;;;;;;;2.95;1.92;;;;;;;18.54;48.72;99213.69;4977834;28;20026;-76
2023/04/19 07:44:22;;;;;;;5.28;2.53;;;;;;;18.52;48.96;99214.63;4973077;28;20055;-76
2023/04/19 07:46:47;;;;;;;4.43;2.33;;;;;;;18.51;48.92;99204.97;4973152;28;20047;-76
2023/04/19 07:49:13;;;;;;;4.30;2.58;;;;;;;18.52;48.96;99214.63;4972962;28;20091;-76
2023/04/19 07:51:38;;;;;;;3.72;2.17;;;;;;;18.56;48.63;99209.16;4987828;28;20029;-77
2023/04/19 07:54:04;;;;;;;4.38;2.50;;;;;;;18.56;48.83;99203.88;4973140;28;20594;-77
2023/04/19 07:56:29;;;;;;;3.25;2.25;;;;;;;18.57;48.69;99200.28;4973046;28;20171;-76
2023/04/19 07:58:55;;;;;;;3.50;2.17;;;;;;;18.60;48.89;99215.97;4976354;28;20378;-76
2023/04/19 08:01:20;;;;;;;3.50;2.25;;;;;;;18.61;48.81;99204.47;4973287;28;20023;-76
2023/04/19 08:03:46;;;;;;;3.97;2.72;;;;;;;18.62;48.94;99198.25;4956925;28;20021;-77
2023/04/19 08:06:11;;;;;;;4.82;2.63;;;;;;;18.62;48.62;99195.59;4986494;28;20078;-76
2023/04/19 08:08:37;;;;;;;4.57;2.80;;;;;;;18.63;48.58;99200.81;4972959;28;20031;-76
2023/04/19 08:11:03;;;;;;;3.97;2.50;;;;;;;18.62;48.65;99195.59;4972973;28;20103;-76
2023/04/19 08:13:29;;;;;;;4.53;2.30;;;;;;;18.66;48.61;99189.22;4972366;28;20054;-76
2023/04/19 08:15:55;;;;;;;4.10;2.38;;;;;;;18.67;48.88;99182.97;4979218;28;20393;-77
2023/04/19 08:18:20;;;;;;;3.78;2.35;;;;;;;18.68;48.69;99184.69;4972824;28;20053;-77
2023/04/19 08:20:46;;;;;;;4.50;2.60;;;;;;;18.71;48.60;99181.88;4972595;28;20358;-77
2023/04/19 08:23:12;;;;;;;3.67;2.40;;;;;;;18.71;48.67;99181.03;4972525;28;20051;-76
2023/04/19 08:25:38;;;;;;;3.50;2.47;;;;;;;18.71;48.72;99176.59;4977672;28;20066;-76
2023/04/19 08:28:04;;;;;;;3.47;2.35;;;;;;;18.73;48.70;99182.63;4975759;28;20039;-76
2023/04/19 08:30:30;;;;;;;3.78;2.33;;;;;;;18.75;48.71;99183.41;4955580;28;20023;-76
2023/04/19 08:32:56;;;;;;;4.43;2.63;;;;;;;18.75;48.66;99175.47;4975227;28;20031;-76
2023/04/19 08:35:21;;;;;;;4.35;2.65;;;;;;;18.76;48.65;99173.69;4978444;28;20014;-76
2023/04/19 08:37:48;;;;;;;4.15;2.75;;;;;;;18.77;48.82;99176.25;4982888;28;20026;-76
2023/04/19 08:40:15;;;;;;;3.83;2.60;;;;;;;18.79;48.69;99174.38;4976141;28;20560;-77
2023/04/19 08:42:41;;;;;;;4.10;2.33;;;;;;;18.79;48.87;99173.50;4976074;28;20035;-76
2023/04/19 08:45:07;;;;;;;4.10;2.47;;;;;;;18.79;48.63;99174.38;4959046;28;20026;-76
2023/04/19 08:47:34;;;;;;;4.60;2.63;;;;;;;18.81;48.93;99171.63;4976333;28;20039;-76
2023/04/19 08:50:02;;;;;;;4.95;2.75;;;;;;;18.81;48.71;99173.41;4976165;28;20026;-76
2023/04/19 08:52:29;;;;;;;3.38;2.40;;;;;;;18.82;48.71;99161.91;4976205;28;20046;-76
2023/04/19 08:54:55;;;;;;;4.03;2.60;;;;;;;18.84;48.59;99165.34;4976299;28;20512;-76
2023/04/19 08:57:20;;;;;;;4.88;2.83;;;;;;;18.85;48.80;99169.69;4975488;28;20027;-76
2023/04/19 08:59:49;;;;;;;3.67;2.38;;;;;;;18.87;48.65;99165.13;4976303;28;20026;-77
2023/04/19 09:02:16;;;;;;;4.35;2.60;;;;;;;18.87;48.67;99160.72;4974617;28;20078;-76
2023/04/19 09:04:41;;;;;;;5.60;3.00;;;;;;;18.88;48.62;99169.47;4975947;28;20026;-77
2023/04/19 09:07:07;;;;;;;5.57;2.60;;;;;;;18.89;48.76;99173.84;4975537;28;20074;-76
2023/04/19 09:09:33;;;;;;;5.32;2.92;;;;;;;18.92;48.81;99168.38;4975525;28;20110;-77
2023/04/19 09:11:58;;;;;;;4.10;2.63;;;;;;;18.92;48.64;99171.03;4976486;28;20489;-76
2023/04/19 09:14:25;;;;;;;4.93;2.70;;;;;;;18.94;48.92;99166.53;4976655;28;20034;-76
2023/04/19 09:16:51;;;;;;;4.85;2.75;;;;;;;18.95;48.67;99170.00;4976230;28;20027;-75
2023/04/19 09:19:17;;;;;;;3.63;2.53;;;;;;;18.96;48.69;99169.06;4975678;28;20019;-76
2023/04/19 09:21:42;;;;;;;6.07;2.45;;;;;;;18.98;48.75;99161.91;4976051;28;20088;-76
2023/04/19 09:24:09;;;;;;;4.55;2.60;;;;;;;18.99;48.92;99167.09;4975338;28;20093;-76
2023/04/19 09:26:35;;;;;;;4.35;2.70;;;;;;;18.99;48.69;99167.09;4975511;28;20037;-77
2023/04/19 09:29:03;;;;;;;4.03;2.47;;;;;;;18.99;48.90;99156.50;4975778;28;20047;-76
2023/04/19 09:31:30;;;;;;;4.03;2.08;;;;;;;19.00;48.62;99160.88;4975388;28;20030;-77
2023/04/19 09:33:57;;;;;;;5.85;2.42;;;;;;;19.02;48.60;99169.56;4975438;28;20105;-76
2023/04/19 09:36:30;;;;;;;5.03;2.53;;;;;;;19.04;48.81;99162.41;4975549;28;20081;-75
2023/04/19 09:38:56;;;;;;;4.07;2.65;;;;;;;19.03;48.74;99166.00;4975029;28;20031;-76
2023/04/19 09:41:22;;;;;;;5.13;2.55;;;;;;;19.04;48.81;99162.41;4978169;28;20090;-77
2023/04/19 09:43:47;;;;;;;4.53;2.75;;;;;;;19.08;48.62;99167.53;4975112;28;20034;-76
2023/04/19 09:46:35;;;;;;;4.22;2.67;;;;;;;19.08;48.89;99152.50;4979091;28;20030;-76
2023/04/19 09:49:16;;;;;;;5.53;2.45;;;;;;;19.08;48.79;99152.50;4962548;28;20069;-76
2023/04/19 09:51:41;;;;;;;4.53;2.35;;;;;;;19.10;48.58;99144.50;4975049;28;20031;-77
2023/04/19 09:54:11;;;;;;;4.45;2.20;;;;;;;19.11;48.55;99141.78;4957235;28;20057;-73
2023/04/19 09:56:37;;;;;;;5.20;2.58;;;;;;;19.13;48.86;99144.34;4982176;28;20119;-76
2023/04/19 09:59:04;;;;;;;5.13;2.20;;;;;;;19.14;48.70;99146.84;4976434;28;20023;-76
2023/04/19 10:01:46;;;;;;;5.13;2.33;;;;;;;19.14;48.87;99146.84;4975249;28;20030;-76
2023/04/19 10:04:20;;;;;;;4.20;2.30;;;;;;;19.15;48.56;99153.00;4988431;28;20022;-76
2023/04/19 10:06:48;;;;;;;5.07;2.80;;;;;;;19.17;48.96;99140.53;4974555;28;20037;-77
2023/04/19 10:09:14;;;;;;;4.13;2.20;;;;;;;19.17;48.69;99138.75;4974179;28;20038;-77
2023/04/19 10:11:46;;;;;;;4.45;2.53;;;;;;;19.20;48.92;99145.66;4986820;28;20023;-77
2023/04/19 10:14:14;;;;;;;5.43;2.40;;;;;;;19.20;48.92;99140.38;4974630;28;20018;-76
2023/04/19 10:16:39;;;;;;;4.60;2.00;;;;;;;19.21;48.91;99136.78;4974406;28;20417;-78
2023/04/19 10:19:08;;;;;;;4.22;2.28;;;;;;;19.22;48.81;99138.47;4974609;28;20089;-77
2023/04/19 10:21:35;;;;;;;3.78;2.13;;;;;;;19.25;48.72;99143.59;4974529;28;20019;-77
2023/04/19 10:24:01;;;;;;;4.80;2.42;;;;;;;19.25;48.74;99132.16;4982601;28;20396;-77
2023/04/19 10:26:27;;;;;;;3.70;2.30;;;;;;;19.27;48.64;99141.72;4977017;28;20019;-77
2023/04/19 10:28:56;;;;;;;5.00;2.40;;;;;;;19.28;48.98;99132.81;4974244;28;20030;-76
2023/04/19 10:31:24;;;;;;;5.00;2.78;;;;;;;19.29;48.84;99133.69;4987825;28;20090;-75
2023/04/19 10:33:53;;;;;;;4.80;2.22;;;;;;;19.29;48.91;99134.56;4982358;28;20454;-74
2023/04/19 10:36:19;;;;;;;4.00;2.30;;;;;;;19.31;48.95;99137.94;4979442;28;20031;-75
2023/04/19 10:38:54;;;;;;;4.53;2.33;;;;;;;19.32;48.79;99144.94;4984282;28;20082;-75
2023/04/19 10:41:20;;;;;;;3.63;2.20;;;;;;;19.34;48.88;99125.47;4973959;28;20461;-75
2023/04/19 10:44:07;;;;;;;5.25;2.30;;;;;;;19.35;48.88;99128.03;4974254;28;20408;-75
2023/04/19 10:46:32;;;;;;;3.33;1.98;;;;;;;19.38;49.00;99121.72;4973791;28;20481;-75
2023/04/19 10:49:02;;;;;;;4.55;2.40;;;;;;;19.38;48.66;99121.72;4973954;28;20046;-75
2023/04/19 10:51:32;;;;;;;4.28;2.33;;;;;;;19.39;48.98;99118.97;4973465;28;20370;-75
2023/04/19 10:54:02;;;;;;;4.30;2.38;;;;;;;19.41;48.75;99124.16;4973703;28;20035;-77
2023/04/19 10:56:33;;;;;;;3.92;2.20;;;;;;;19.42;48.94;99117.94;4973544;28;20101;-75
2023/04/19 11:01:47;;;;;;;4.45;2.10;;;;;;;19.45;48.75;99117.75;4973849;28;20035;-75
2023/04/19 11:04:48;;;;;;;4.88;2.15;;;;;;;19.46;48.75;99114.16;4973763;28;20035;-75
2023/04/19 11:07:14;;;;;;;4.20;1.95;;;;;;;19.47;48.81;99115.88;4894647;29;20585;-75
2023/04/19 11:09:44;;;;;;;3.63;2.00;;;;;;;19.48;48.69;99107.00;4894828;29;20040;-75
2023/04/19 11:12:12;;;;;;;4.68;2.05;;;;;;;19.49;48.71;99108.69;4879512;29;20076;-75
2023/04/19 11:14:41;;;;;;;3.67;2.10;;;;;;;19.51;48.86;99100.66;4894790;29;20108;-74
2023/04/19 11:17:30;;;;;;;3.75;2.20;;;;;;;19.52;48.95;99107.66;4894942;29;20040;-75
2023/04/19 11:20:07;;;;;;;5.75;2.20;;;;;;;19.53;48.81;99098.78;4895046;29;20041;-76
2023/04/19 11:22:36;;;;;;;4.25;2.05;;;;;;;19.55;48.85;99100.38;4895353;29;20040;-75
2023/04/19 11:25:18;;;;;;;5.30;2.33;;;;;;;19.56;48.75;99094.13;4895002;29;20522;-75
2023/04/19 11:27:51;;;;;;;3.78;1.95;;;;;;;19.57;48.94;99090.53;4895055;29;20104;-74
2023/04/19 11:30:22;;;;;;;5.25;2.08;;;;;;;19.58;48.98;99089.59;4895021;29;20093;-75
2023/04/19 11:32:51;;;;;;;5.82;2.13;;;;;;;19.61;48.79;99085.06;4894795;29;20499;-75
2023/04/19 11:35:29;;;;;;;3.67;2.17;;;;;;;19.61;48.95;99079.78;4891109;29;20100;-74